createdAt,value
2022-12-25T00:00:58.474Z,100382.64
2022-12-25T00:03:49.276Z,100390.70
2022-12-25T00:06:19.366Z,100394.31
2022-12-25T00:08:53.476Z,100398.02
2022-12-25T00:11:20.639Z,100402.98
2022-12-25T00:13:48.491Z,100406.10
2022-12-25T00:16:20.997Z,100405.70
2022-12-25T00:18:49.474Z,100410.30
2022-12-25T00:21:17.158Z,100411.06
2022-12-25T00:23:44.137Z,100413.52
2022-12-25T00:26:14.776Z,100412.41
2022-12-25T00:28:41.519Z,100419.35
2022-12-25T00:31:15.236Z,100425.86
2022-12-25T00:33:45.972Z,100429.23
2022-12-25T00:36:15.439Z,100428.29
2022-12-25T00:38:43.268Z,100428.90
2022-12-25T00:41:12.704Z,100426.02
2022-12-25T00:43:41.559Z,100425.88
2022-12-25T00:46:10.980Z,100433.09
2022-12-25T00:48:38.635Z,100440.43
2022-12-25T00:51:08.210Z,100437.45
2022-12-25T00:53:34.821Z,100432.55
2022-12-25T00:56:04.294Z,100426.91
2022-12-25T00:58:32.682Z,100420.52
2022-12-25T01:01:02.245Z,100430.63
2022-12-25T01:03:29.227Z,100433.83
2022-12-25T01:06:01.708Z,100435.30
2022-12-25T01:08:31.364Z,100432.54
2022-12-25T01:11:14.773Z,100427.74
2022-12-25T01:13:42.265Z,100429.42
2022-12-25T01:16:11.045Z,100434.80
2022-12-25T01:18:38.567Z,100443.66
2022-12-25T01:21:15.483Z,100444.17
2022-12-25T01:23:43.317Z,100443.88
2022-12-25T01:26:13.209Z,100438.81
2022-12-25T01:28:40.747Z,100435.13
2022-12-25T01:31:12.442Z,100434.50
2022-12-25T01:33:40.442Z,100430.37
2022-12-25T01:36:20.207Z,100426.02
2022-12-25T01:38:49.044Z,100431.66
2022-12-25T01:41:27.825Z,100436.12
2022-12-25T01:44:27.391Z,100437.34
2022-12-25T01:46:54.375Z,100429.36
2022-12-25T01:52:53.934Z,100435.98
2022-12-25T01:55:22.420Z,100443.55
2022-12-25T01:57:54.154Z,100449.71
2022-12-25T02:00:20.741Z,100453.08
2022-12-25T02:02:48.532Z,100455.36
2022-12-25T02:05:29.412Z,100456.05
2022-12-25T02:08:00.190Z,100455.04
2022-12-25T02:10:27.471Z,100455.80
2022-12-25T02:12:54.407Z,100455.88
2022-12-25T02:15:26.395Z,100456.08
2022-12-25T02:18:11.563Z,100457.71
2022-12-25T02:21:11.379Z,100457.39
2022-12-25T02:24:02.645Z,100455.06
2022-12-25T02:26:38.416Z,100454.02
2022-12-25T02:29:25.121Z,100451.89
2022-12-25T02:32:18.291Z,100456.13
2022-12-25T02:34:57.900Z,100462.92
2022-12-25T02:37:35.461Z,100462.42
2022-12-25T02:40:28.926Z,100459.21
2022-12-25T02:43:22.509Z,100463.96
2022-12-25T02:46:27.455Z,100457.21
2022-12-25T02:49:16.843Z,100456.80
2022-12-25T02:52:12.956Z,100465.01
2022-12-25T02:55:06.235Z,100474.89
2022-12-25T02:57:57.719Z,100480.73
2022-12-25T03:00:44.072Z,100485.67
2022-12-25T03:03:36.107Z,100484.15
2022-12-25T03:06:22.874Z,100487.91
2022-12-25T03:09:22.297Z,100485.94
2022-12-25T03:11:56.825Z,100486.18
2022-12-25T03:14:42.293Z,100489.30
2022-12-25T03:17:09.370Z,100490.64
2022-12-25T03:19:56.219Z,100487.41
2022-12-25T03:22:46.951Z,100484.13
2022-12-25T03:25:33.771Z,100489.98
2022-12-25T03:28:04.322Z,100490.77
2022-12-25T03:31:13.838Z,100498.17
2022-12-25T03:34:12.162Z,100501.35
2022-12-25T03:37:16.549Z,100497.49
2022-12-25T03:40:43.422Z,100497.05
2022-12-25T03:43:44.091Z,100500.75
2022-12-25T03:46:46.979Z,100502.52
2022-12-25T03:50:10.658Z,100503.75
2022-12-25T03:52:58.168Z,100499.68
2022-12-25T03:55:47.280Z,100509.12
2022-12-25T03:59:25.078Z,100514.36
2022-12-25T04:02:10.320Z,100520.37
2022-12-25T04:04:59.992Z,100518.02
2022-12-25T04:07:45.333Z,100522.55
2022-12-25T04:10:31.193Z,100522.20
2022-12-25T04:13:16.649Z,100527.80
2022-12-25T04:16:01.812Z,100531.69
2022-12-25T04:18:47.657Z,100530.52
2022-12-25T04:21:33.178Z,100534.48
2022-12-25T04:24:18.979Z,100539.30
2022-12-25T04:27:04.743Z,100537.45
2022-12-25T04:29:51.012Z,100545.16
2022-12-25T04:32:36.524Z,100549.39
2022-12-25T04:35:22.421Z,100553.77
2022-12-25T04:37:49.031Z,100556.60
2022-12-25T04:40:17.496Z,100558.48
2022-12-25T04:42:44.114Z,100556.17
2022-12-25T04:45:13.789Z,100553.95
2022-12-25T04:47:40.561Z,100560.22
2022-12-25T04:50:07.646Z,100564.09
2022-12-25T04:52:36.740Z,100568.39
2022-12-25T04:55:09.422Z,100571.77
2022-12-25T04:57:36.886Z,100574.67
2022-12-25T05:00:05.349Z,100579.04
2022-12-25T05:02:32.502Z,100585.75
2022-12-25T05:04:59.424Z,100592.27
2022-12-25T05:07:26.257Z,100588.57
2022-12-25T05:09:53.474Z,100590.55
2022-12-25T05:12:20.414Z,100595.65
2022-12-25T05:14:46.982Z,100596.73
2022-12-25T05:17:13.661Z,100597.37
2022-12-25T05:19:40.359Z,100595.09
2022-12-25T05:22:07.049Z,100596.61
2022-12-25T05:24:33.638Z,100597.22
2022-12-25T05:27:00.444Z,100596.33
2022-12-25T05:29:28.558Z,100595.19
2022-12-25T05:31:55.132Z,100595.57
2022-12-25T05:34:22.048Z,100593.63
2022-12-25T05:36:50.156Z,100597.15
2022-12-25T05:39:16.814Z,100597.40
2022-12-25T05:41:43.455Z,100600.61
2022-12-25T05:44:10.347Z,100607.47
2022-12-25T05:46:37.010Z,100609.83
2022-12-25T05:49:05.100Z,100614.05
2022-12-25T05:51:32.366Z,100620.59
2022-12-25T05:53:59.198Z,100625.31
2022-12-25T05:56:28.313Z,100627.79
2022-12-25T05:58:55.251Z,100637.33
2022-12-25T06:01:24.313Z,100647.98
2022-12-25T06:03:52.394Z,100650.03
2022-12-25T06:06:20.350Z,100644.29
2022-12-25T06:08:49.073Z,100645.71
2022-12-25T06:11:16.516Z,100649.88
2022-12-25T06:16:26.843Z,100648.67
2022-12-25T06:18:56.292Z,100647.44
2022-12-25T06:21:23.164Z,100654.21
2022-12-25T06:23:50.789Z,100663.05
2022-12-25T06:26:20.312Z,100664.48
2022-12-25T06:28:48.030Z,100670.41
2022-12-25T06:31:19.169Z,100674.14
2022-12-25T06:33:47.463Z,100671.11
2022-12-25T06:36:22.666Z,100672.92
2022-12-25T06:38:50.566Z,100686.29
2022-12-25T06:45:26.628Z,100684.25
2022-12-25T06:47:53.370Z,100678.61
2022-12-25T07:38:54.019Z,100718.36
2022-12-25T07:41:25.024Z,100715.11
2022-12-25T07:43:57.501Z,100726.29
2022-12-25T09:23:02.027Z,100779.39
2022-12-25T09:25:29.609Z,100774.31
2022-12-25T09:36:10.964Z,100783.25
2022-12-25T09:55:28.083Z,100778.55
2022-12-25T10:01:12.718Z,100772.75
2022-12-25T10:08:29.390Z,100768.02
2022-12-25T10:11:18.347Z,100773.13
2022-12-25T10:13:58.635Z,100781.57
2022-12-25T10:17:05.197Z,100784.02
2022-12-25T10:20:26.438Z,100790.21
2022-12-25T10:23:25.101Z,100791.25
2022-12-25T10:29:19.179Z,100786.93
2022-12-25T10:31:49.625Z,100789.95
2022-12-25T10:34:17.759Z,100784.21
2022-12-25T10:40:00.358Z,100788.64
2022-12-25T10:51:58.408Z,100780.13
2022-12-25T10:54:29.873Z,100782.08
2022-12-25T10:57:09.701Z,100782.30
2022-12-25T11:02:41.059Z,100785.20
2022-12-25T11:05:25.548Z,100781.06
2022-12-25T11:48:49.720Z,100776.95
2022-12-25T11:51:19.453Z,100772.22
2022-12-25T11:53:49.538Z,100773.61
2022-12-25T11:56:17.975Z,100770.61
2022-12-25T11:58:55.055Z,100778.98
2022-12-25T12:15:40.127Z,100782.84
2022-12-25T12:18:28.790Z,100779.33
2022-12-25T12:21:05.178Z,100781.60
2022-12-25T12:23:49.088Z,100781.08
2022-12-25T12:26:22.120Z,100781.22
2022-12-25T12:28:52.787Z,100767.51
2022-12-25T12:31:22.089Z,100784.69
2022-12-25T12:33:59.199Z,100785.95
2022-12-25T13:34:30.979Z,100822.55
2022-12-25T13:37:06.362Z,100816.33
2022-12-25T13:39:36.587Z,100819.39
2022-12-25T13:42:06.541Z,100822.83
2022-12-25T14:22:24.506Z,100823.63
2022-12-25T14:24:52.016Z,100833.07
2022-12-25T14:27:25.067Z,100843.23
2022-12-25T14:29:55.619Z,100847.59
2022-12-25T14:32:25.481Z,100847.60
2022-12-25T14:34:59.647Z,100846.80
2022-12-25T14:37:30.232Z,100847.36
2022-12-25T14:40:04.394Z,100850.35
2022-12-25T14:42:34.471Z,100852.45
2022-12-25T14:45:24.261Z,100853.49
2022-12-25T14:47:53.219Z,100848.60
2022-12-25T14:50:27.540Z,100847.70
2022-12-25T14:52:55.119Z,100852.17
2022-12-25T14:55:28.142Z,100854.30
2022-12-25T14:58:03.877Z,100848.89
2022-12-25T15:00:38.222Z,100845.42
2022-12-25T15:03:16.873Z,100849.58
2022-12-25T15:05:43.874Z,100859.92
2022-12-25T15:08:10.516Z,100859.89
2022-12-25T15:13:26.264Z,100870.38
2022-12-25T15:16:00.920Z,100868.27
2022-12-25T15:18:40.825Z,100875.45
2022-12-25T15:21:15.757Z,100879.87
2022-12-25T15:23:42.501Z,100882.30
2022-12-25T15:26:13.049Z,100882.01
2022-12-25T15:28:40.129Z,100890.39
2022-12-25T15:31:25.632Z,100886.90
2022-12-25T15:33:53.742Z,100889.80
2022-12-25T15:36:20.891Z,100896.55
2022-12-25T15:38:47.816Z,100899.63
2022-12-25T15:41:56.692Z,100905.86
2022-12-25T15:44:24.197Z,100907.52
2022-12-25T15:46:51.541Z,100908.02
2022-12-25T15:49:18.627Z,100910.59
2022-12-25T15:51:45.605Z,100919.66
2022-12-25T15:54:12.730Z,100917.26
2022-12-25T15:56:51.105Z,100920.33
2022-12-25T15:59:19.337Z,100919.98
2022-12-25T16:01:53.593Z,100918.57
2022-12-25T16:04:21.578Z,100926.69
2022-12-25T16:06:49.437Z,100925.84
2022-12-25T16:09:17.239Z,100926.34
2022-12-25T16:11:43.933Z,100928.81
2022-12-25T16:14:10.705Z,100930.30
2022-12-25T16:16:37.658Z,100935.98
2022-12-25T16:19:04.727Z,100939.49
2022-12-25T16:21:42.008Z,100937.32
2022-12-25T16:24:08.886Z,100941.00
2022-12-25T16:26:40.024Z,100943.39
2022-12-25T16:29:07.878Z,100938.91
2022-12-25T16:31:59.889Z,100939.59
2022-12-25T16:34:26.631Z,100942.27
2022-12-25T16:36:53.480Z,100939.11
2022-12-25T16:39:20.048Z,100939.63
2022-12-25T16:41:46.771Z,100947.59
2022-12-25T16:44:14.174Z,100962.30
2022-12-25T16:46:40.961Z,100967.14
2022-12-25T16:49:08.154Z,100973.85
2022-12-25T16:51:35.158Z,100985.34
2022-12-25T16:54:01.897Z,100987.36
2022-12-25T16:56:30.122Z,100992.56
2022-12-25T16:58:58.570Z,100995.91
2022-12-25T17:01:25.489Z,100987.22
2022-12-25T17:03:52.417Z,100994.98
2022-12-25T17:06:26.069Z,100999.06
2022-12-25T17:08:56.487Z,101011.36
2022-12-25T17:11:26.722Z,101013.02
2022-12-25T17:13:53.810Z,101014.52
2022-12-25T17:16:24.809Z,101012.83
2022-12-25T17:19:12.359Z,101006.61
2022-12-25T17:21:38.930Z,101007.42
2022-12-25T17:24:06.041Z,101012.51
2022-12-25T17:26:33.073Z,101014.08
2022-12-25T17:29:00.172Z,101013.16
2022-12-25T17:31:27.785Z,101009.50
2022-12-25T17:33:55.228Z,101012.45
2022-12-25T17:36:22.943Z,101022.80
2022-12-25T17:38:49.622Z,101030.94
2022-12-25T17:41:18.018Z,101024.98
2022-12-25T17:43:46.115Z,101023.66
2022-12-25T17:46:22.382Z,101012.44
2022-12-25T17:48:50.255Z,101011.87
2022-12-25T17:51:20.773Z,101011.50
2022-12-25T17:53:49.824Z,101012.14
2022-12-25T17:56:17.438Z,101009.64
2022-12-25T17:58:48.713Z,101004.25
2022-12-25T18:01:16.303Z,101000.88
2022-12-25T18:03:44.425Z,100991.05
2022-12-25T18:06:14.086Z,100991.23
2022-12-25T18:08:42.067Z,100993.84
2022-12-25T18:11:17.131Z,100999.59
2022-12-25T18:13:48.062Z,101001.59
2022-12-25T18:16:15.611Z,101004.52
2022-12-25T18:18:47.984Z,101002.13
2022-12-25T18:21:19.475Z,101001.77
2022-12-25T18:23:46.091Z,100997.45
2022-12-25T18:26:13.183Z,100998.38
2022-12-25T18:28:41.831Z,100991.08
2022-12-25T18:31:10.677Z,101002.04
2022-12-25T18:33:37.350Z,101000.63
2022-12-25T18:36:05.702Z,101001.17
2022-12-25T18:38:32.478Z,101007.99
2022-12-25T18:40:59.302Z,101012.39
2022-12-25T18:43:52.779Z,101015.72
2022-12-25T18:46:13.543Z,101010.46
2022-12-25T18:48:40.556Z,101007.17
2022-12-25T18:51:12.066Z,101002.39
2022-12-25T18:53:41.490Z,101001.20
2022-12-25T18:56:15.027Z,101016.96
2022-12-25T18:58:42.751Z,101025.92
2022-12-25T19:01:24.816Z,101034.64
2022-12-25T19:03:53.867Z,101041.73
2022-12-25T19:06:28.581Z,101043.66
2022-12-25T19:08:58.948Z,101046.41
2022-12-25T19:11:26.703Z,101045.06
2022-12-25T19:13:53.460Z,101042.77
2022-12-25T19:16:21.188Z,101037.39
2022-12-25T19:18:48.127Z,101037.61
2022-12-25T19:21:16.282Z,101040.23
2022-12-25T19:23:43.890Z,101047.48
2022-12-25T19:26:12.711Z,101051.67
2022-12-25T19:28:39.621Z,101052.74
2022-12-25T19:31:08.337Z,101049.92
2022-12-25T19:33:40.159Z,101050.41
2022-12-25T19:36:16.210Z,101053.17
2022-12-25T19:38:46.449Z,101050.14
2022-12-25T19:41:16.041Z,101053.73
2022-12-25T19:43:47.594Z,101054.41
2022-12-25T19:46:24.426Z,101056.14
2022-12-25T19:48:52.464Z,101060.19
2022-12-25T19:51:26.429Z,101058.94
2022-12-25T19:53:58.044Z,101053.19
2022-12-25T19:56:26.843Z,101054.64
2022-12-25T19:58:54.722Z,101050.92
2022-12-25T20:01:23.850Z,101057.52
2022-12-25T20:28:02.708Z,101054.20
2022-12-25T20:30:29.826Z,101049.48
2022-12-25T20:36:37.281Z,101052.87
2022-12-25T20:39:08.868Z,101055.91
2022-12-25T20:46:05.223Z,101042.34
2022-12-25T20:48:56.712Z,101039.51
2022-12-25T20:51:26.197Z,101042.48
2022-12-25T20:53:55.097Z,101053.41
2022-12-25T20:56:27.741Z,101058.99
2022-12-25T20:58:59.032Z,101050.19
2022-12-25T21:01:28.678Z,101036.17
2022-12-25T21:03:57.254Z,101034.70
2022-12-25T21:29:59.527Z,101036.46
2022-12-25T21:33:01.959Z,101022.41
2022-12-25T22:19:35.785Z,101069.36
2022-12-25T22:22:04.045Z,101071.71
2022-12-25T22:24:32.932Z,101073.09
2022-12-25T22:27:00.323Z,101086.02
